Airfield :
LOGIN :

Register | Disclaimer

   EN    FR    IT 

 










Legend :    VFR   Marginal VFR   IFR   Intensive IFR   Very Intensive IFR
Visi :
Ceiling :
>= 8 km
>= 3000ft
5 to 8 km
1000 to 3000 ft
1500m to 5 km
500 to 1000 ft
800 to 1500m
200 to 500 ft
< 800m
< 200 ft
Symbols :   Thunderstorms  Fog  Heavy snow  Heavy precipitations  Wind > 20 kt
SIGMETs :     Misc.  Thunderstorms  Icing  Turbulence  Mountain Waves  Volcanic Ashes






- Airport Elevation : 119 ft
- IATA code : WAT


EIWF - Waterford

CURRENT METAR :
  • 061700Z 34005KT 290V040 9999 SCT036 17/11 Q1025

EXPIRED METARs :
  • 061630Z 34005KT 290V040 9999 SCT036 17/11 Q1025
  • 061600Z 33004KT 280V020 9999 SCT036 BKN060 18/10 Q1025
  • 061530Z 32005KT 250V010 9999 FEW030 BKN060 16/10 Q1025
  • 061500Z 34008KT 300V020 9999 FEW039 BKN061 17/11 Q1025
  • 061430Z 34009KT 310V010 9999 SCT035 BKN052 17/10 Q1025
  • 061400Z 32005KT 260V010 9999 SCT032 SCT048 17/10 Q1025

TAF TAF EIWF
Valid from the 06 at 15:00 until the 07 at 00:00 UTC


061400Z 0615/0624 29008KT 9999 FEW025 SCT045
PROB30 0615/0618 24010KT
ATIS : +353 51 877 000



MET'MAP, your aeronautical weather chart ! - Copyright ORBIFLY December 2007 - Disclaimer

ORBIFLY MET'MAP TEAM :

Programming & Development : Alexandra Zaïnal
Concept & original design : Baudouin d'Aumeries
Assistance for programming : Marc-Olivier Méhu
Technical & hardware support : Manuel Goepfert

Contact : metmap@orbifly.com




SOURCES & CREDITS :

   NOAA